createdAt,value
2022-09-26T00:01:34.550Z,13.33
2022-09-26T00:04:25.258Z,13.77
2022-09-26T00:06:55.950Z,19.07
2022-09-26T00:09:25.781Z,15.37
2022-09-26T00:11:53.907Z,19.43
2022-09-26T00:14:24.269Z,19.83
2022-09-26T00:16:52.011Z,21.97
2022-09-26T00:19:20.255Z,16.60
2022-09-26T00:21:48.171Z,16.17
2022-09-26T00:24:16.144Z,14.53
2022-09-26T00:26:43.433Z,14.70
2022-09-26T00:29:13.002Z,14.20
2022-09-26T00:31:44.606Z,15.50
2022-09-26T00:34:14.517Z,15.70
2022-09-26T00:36:41.767Z,17.73
2022-09-26T00:39:11.097Z,17.63
2022-09-26T00:41:39.055Z,17.00
2022-09-26T00:44:35.624Z,16.27
2022-09-26T00:47:04.551Z,15.23
2022-09-26T00:49:42.310Z,13.87
2022-09-26T00:52:15.281Z,14.80
2022-09-26T00:54:48.331Z,14.10
2022-09-26T00:57:24.061Z,14.50
2022-09-26T00:59:55.848Z,14.90
2022-09-26T01:02:26.324Z,19.80
2022-09-26T01:04:55.146Z,20.47
2022-09-26T01:07:25.839Z,18.00
2022-09-26T01:09:53.583Z,17.43
2022-09-26T01:12:21.660Z,16.73
2022-09-26T01:14:54.361Z,20.83
2022-09-26T01:17:23.486Z,30.40
2022-09-26T01:20:02.972Z,17.87
2022-09-26T01:22:47.745Z,15.53
2022-09-26T01:25:38.011Z,17.53
2022-09-26T01:28:24.494Z,15.43
2022-09-26T01:31:15.463Z,16.83
2022-09-26T01:33:53.729Z,17.47
2022-09-26T01:36:39.954Z,14.50
2022-09-26T01:39:34.464Z,13.47
2022-09-26T01:42:12.029Z,13.70
2022-09-26T01:44:50.764Z,13.93
2022-09-26T01:47:20.460Z,11.63
2022-09-26T01:49:53.763Z,12.83
2022-09-26T01:52:24.022Z,11.27
2022-09-26T01:55:07.158Z,11.70
2022-09-26T01:57:45.369Z,12.77
2022-09-26T02:00:13.676Z,11.80
2022-09-26T02:02:47.711Z,11.67
2022-09-26T02:05:33.144Z,14.07
2022-09-26T02:08:11.609Z,15.40
2022-09-26T02:10:51.593Z,16.77
2022-09-26T02:13:24.030Z,16.53
2022-09-26T02:15:56.637Z,16.23
2022-09-26T02:18:48.375Z,17.97
2022-09-26T02:21:20.815Z,24.47
2022-09-26T02:23:53.112Z,21.83
2022-09-26T02:26:20.891Z,23.37
2022-09-26T02:28:48.604Z,23.33
2022-09-26T02:31:21.489Z,20.55
2022-09-26T02:33:53.808Z,16.50
2022-09-26T02:36:22.582Z,13.60
2022-09-26T02:38:50.081Z,15.67
2022-09-26T02:41:33.918Z,15.10
2022-09-26T02:44:15.583Z,15.37
2022-09-26T02:47:04.679Z,16.43
2022-09-26T02:49:47.534Z,14.53
2022-09-26T02:52:28.232Z,13.87
2022-09-26T02:55:04.533Z,12.77
2022-09-26T02:57:34.604Z,13.03
2022-09-26T03:00:17.944Z,16.00
2022-09-26T03:03:13.327Z,14.13
2022-09-26T03:05:44.716Z,15.30
2022-09-26T03:08:19.542Z,15.60
2022-09-26T03:10:49.825Z,18.93
2022-09-26T03:13:19.028Z,15.50
2022-09-26T03:15:52.313Z,14.10
2022-09-26T03:18:28.617Z,13.50
2022-09-26T03:20:56.053Z,13.30
2022-09-26T03:23:28.091Z,13.67
2022-09-26T03:26:11.360Z,14.60
2022-09-26T03:28:38.977Z,15.97
2022-09-26T03:31:07.574Z,16.13
2022-09-26T03:33:35.462Z,17.50
2022-09-26T03:36:09.304Z,16.30
2022-09-26T03:38:36.731Z,14.97
2022-09-26T03:41:04.408Z,15.57
2022-09-26T03:43:31.937Z,14.80
2022-09-26T03:46:06.970Z,14.77
2022-09-26T03:48:35.117Z,14.20
2022-09-26T03:51:04.805Z,16.27
2022-09-26T03:53:37.654Z,17.00
2022-09-26T03:56:11.128Z,18.10
2022-09-26T03:58:40.424Z,17.63
2022-09-26T04:01:20.128Z,17.10
2022-09-26T04:03:50.811Z,16.97
2022-09-26T04:06:21.043Z,16.87
2022-09-26T04:08:51.394Z,18.10
2022-09-26T04:11:23.503Z,16.83
2022-09-26T04:13:53.576Z,16.40
2022-09-26T04:16:24.488Z,15.90
2022-09-26T04:18:59.121Z,15.80
2022-09-26T04:21:30.040Z,18.00
2022-09-26T04:23:57.730Z,17.33
2022-09-26T04:26:25.036Z,16.97
2022-09-26T04:28:55.311Z,16.97
2022-09-26T04:31:24.668Z,15.80
2022-09-26T04:33:52.330Z,15.53
2022-09-26T04:36:19.700Z,15.93
2022-09-26T04:38:47.301Z,15.30
2022-09-26T04:41:17.701Z,14.27
2022-09-26T04:43:45.905Z,14.20
2022-09-26T04:46:20.802Z,14.57
2022-09-26T04:48:54.308Z,15.07
2022-09-26T04:51:24.207Z,14.97
2022-09-26T04:53:52.745Z,14.57
2022-09-26T04:56:25.443Z,13.57
2022-09-26T04:58:56.512Z,14.50
2022-09-26T05:01:25.785Z,14.10
2022-09-26T05:03:55.408Z,14.50
2022-09-26T05:06:22.994Z,14.40
2022-09-26T05:08:51.237Z,13.40
2022-09-26T05:11:20.087Z,14.23
2022-09-26T05:13:53.169Z,14.00
2022-09-26T05:16:21.354Z,14.83
2022-09-26T05:18:52.619Z,14.27
2022-09-26T05:21:20.222Z,15.80
2022-09-26T05:24:06.180Z,16.13
2022-09-26T05:26:47.511Z,16.17
2022-09-26T05:29:15.341Z,15.67
2022-09-26T05:31:43.738Z,16.57
2022-09-26T05:34:17.091Z,14.43
2022-09-26T05:36:46.713Z,15.00
2022-09-26T05:39:32.518Z,16.47
2022-09-26T05:42:00.364Z,17.60
2022-09-26T05:44:28.608Z,18.00
2022-09-26T05:46:57.174Z,16.50
2022-09-26T05:49:25.405Z,19.17
2022-09-26T05:51:53.992Z,19.17
2022-09-26T05:54:23.604Z,21.80
2022-09-26T05:56:51.005Z,24.17
2022-09-26T05:59:19.428Z,27.30
2022-09-26T06:01:47.487Z,29.13
2022-09-26T06:04:14.856Z,39.73
2022-09-26T06:06:44.469Z,30.97
2022-09-26T06:09:12.056Z,25.47
2022-09-26T06:11:39.370Z,26.10
2022-09-26T06:14:08.525Z,33.97
2022-09-26T06:16:35.903Z,24.47
2022-09-26T06:19:03.390Z,20.37
2022-09-26T06:21:30.860Z,18.80
2022-09-26T06:23:58.203Z,19.27
2022-09-26T06:26:29.243Z,21.20
2022-09-26T06:28:58.411Z,23.93
2022-09-26T06:31:26.660Z,19.27
2022-09-26T06:33:54.592Z,15.60
2022-09-26T06:36:23.668Z,15.70
2022-09-26T06:38:51.754Z,16.73
2022-09-26T06:41:19.764Z,16.07
2022-09-26T06:43:47.896Z,16.80
2022-09-26T06:46:16.428Z,17.93
2022-09-26T06:48:44.284Z,17.30
2022-09-26T06:51:14.103Z,18.87
2022-09-26T06:53:42.861Z,21.83
2022-09-26T06:56:10.314Z,17.87
2022-09-26T06:58:38.331Z,17.40
2022-09-26T07:01:09.256Z,18.80
2022-09-26T07:03:39.516Z,19.03
2022-09-26T07:06:10.349Z,21.00
2022-09-26T07:09:01.103Z,19.33
2022-09-26T07:12:10.030Z,18.07
2022-09-26T07:14:17.188Z,20.10
2022-09-26T07:16:45.593Z,21.10
2022-09-26T07:19:13.256Z,22.93
2022-09-26T07:21:40.662Z,21.40
2022-09-26T07:24:08.929Z,21.33
2022-09-26T07:26:36.449Z,20.90
2022-09-26T07:29:05.518Z,20.37
2022-09-26T07:31:32.970Z,20.77
2022-09-26T07:34:00.678Z,21.53
2022-09-26T07:36:28.347Z,19.27
2022-09-26T07:38:55.780Z,23.67
2022-09-26T07:41:23.600Z,18.20
2022-09-26T07:44:46.229Z,18.07
2022-09-26T07:46:57.396Z,17.70
2022-09-26T07:49:43.343Z,18.97
2022-09-26T07:52:11.400Z,16.70
2022-09-26T07:54:38.853Z,17.90
2022-09-26T07:57:06.415Z,16.07
2022-09-26T07:59:37.036Z,16.37
2022-09-26T08:02:04.674Z,15.13
2022-09-26T08:04:32.009Z,16.60
2022-09-26T08:07:00.250Z,17.47
2022-09-26T08:09:28.813Z,18.30
2022-09-26T08:11:56.572Z,17.43
2022-09-26T08:14:23.830Z,16.80
2022-09-26T08:16:57.213Z,18.27
2022-09-26T08:19:24.740Z,17.20
2022-09-26T08:21:52.102Z,14.87
2022-09-26T08:24:19.406Z,20.63
2022-09-26T08:26:46.750Z,18.13
2022-09-26T08:29:14.321Z,14.20
2022-09-26T08:31:42.194Z,16.00
2022-09-26T08:34:09.860Z,15.13
2022-09-26T08:36:37.506Z,18.70
2022-09-26T08:39:05.542Z,13.10
2022-09-26T08:41:59.875Z,12.57
2022-09-26T08:44:39.731Z,12.43
2022-09-26T08:47:39.119Z,12.63
2022-09-26T08:50:47.551Z,12.17
2022-09-26T08:53:20.819Z,11.23
2022-09-26T08:55:50.312Z,8.13
2022-09-26T08:58:21.707Z,8.97
2022-09-26T09:00:58.176Z,8.70
2022-09-26T09:03:28.629Z,10.63
2022-09-26T09:06:11.655Z,11.30
2022-09-26T09:08:49.233Z,7.70
2022-09-26T09:11:25.466Z,7.00
2022-09-26T09:14:30.823Z,6.87
2022-09-26T09:17:16.843Z,6.73
2022-09-26T09:19:54.713Z,5.73
2022-09-26T09:23:03.698Z,5.83
2022-09-26T09:25:48.742Z,10.60
2022-09-26T09:29:00.808Z,11.43
2022-09-26T09:31:32.677Z,8.73
2022-09-26T09:34:06.074Z,5.77
2022-09-26T09:36:41.042Z,5.93
2022-09-26T09:39:13.034Z,4.60
2022-09-26T09:41:48.768Z,4.87
2022-09-26T09:44:43.123Z,4.70
2022-09-26T09:47:16.275Z,4.17
2022-09-26T09:49:47.091Z,5.03
2022-09-26T09:52:36.043Z,4.70
2022-09-26T09:55:32.354Z,4.87
2022-09-26T09:58:32.852Z,5.17
2022-09-26T10:01:10.076Z,4.50
2022-09-26T10:03:50.417Z,4.80
2022-09-26T10:06:45.520Z,5.00
2022-09-26T10:09:38.873Z,4.67
2022-09-26T10:12:21.952Z,4.30
2022-09-26T10:15:00.413Z,5.33
2022-09-26T10:17:28.981Z,4.57
2022-09-26T10:19:56.814Z,4.10
2022-09-26T10:22:45.269Z,4.23
2022-09-26T10:25:22.969Z,3.27
2022-09-26T10:27:55.463Z,4.30
2022-09-26T10:30:32.241Z,3.67
2022-09-26T10:33:05.589Z,3.90
2022-09-26T10:35:47.091Z,3.60
2022-09-26T10:38:28.116Z,4.30
2022-09-26T10:41:02.124Z,3.87
2022-09-26T10:43:38.223Z,5.07
2022-09-26T10:46:13.256Z,5.23
2022-09-26T10:49:13.661Z,4.27
2022-09-26T10:51:46.003Z,4.27
2022-09-26T10:54:19.030Z,4.20
2022-09-26T10:56:57.599Z,4.73
2022-09-26T10:59:29.314Z,4.67
2022-09-26T11:01:59.445Z,4.27
2022-09-26T11:04:53.317Z,4.60
2022-09-26T11:07:29.629Z,4.80
2022-09-26T11:10:06.834Z,5.10
2022-09-26T11:12:41.801Z,5.00
2022-09-26T11:15:15.953Z,5.00
2022-09-26T11:17:47.986Z,4.20
2022-09-26T11:20:49.590Z,4.90
2022-09-26T11:23:36.103Z,4.47
2022-09-26T11:26:13.021Z,5.00
2022-09-26T11:28:47.183Z,4.97
2022-09-26T11:31:27.126Z,5.00
2022-09-26T11:33:56.062Z,4.53
2022-09-26T11:36:29.872Z,5.20
2022-09-26T11:38:58.580Z,5.23
2022-09-26T11:41:47.121Z,5.20
2022-09-26T11:44:38.810Z,5.20
2022-09-26T11:47:25.000Z,5.87
2022-09-26T11:50:27.971Z,5.27
2022-09-26T11:53:19.863Z,6.10
2022-09-26T11:56:23.352Z,6.30
2022-09-26T11:59:25.757Z,6.90
2022-09-26T12:02:16.014Z,7.73
2022-09-26T12:04:52.270Z,7.00
2022-09-26T12:07:40.052Z,7.80
2022-09-26T12:10:27.130Z,7.40
2022-09-26T12:13:18.378Z,6.23
2022-09-26T12:16:25.326Z,6.47
2022-09-26T12:19:16.297Z,6.63
2022-09-26T12:22:30.933Z,7.77
2022-09-26T12:25:01.606Z,7.60
2022-09-26T12:27:44.795Z,7.90
2022-09-26T12:30:20.605Z,9.00
2022-09-26T12:33:06.413Z,10.00
2022-09-26T12:35:56.831Z,9.93
2022-09-26T12:38:58.797Z,10.47
2022-09-26T12:41:53.079Z,9.13
2022-09-26T12:44:40.921Z,9.60
2022-09-26T12:47:14.167Z,9.87
2022-09-26T12:49:52.019Z,10.50
2022-09-26T12:52:36.426Z,11.60
2022-09-26T12:55:14.671Z,9.87
2022-09-26T12:57:47.116Z,8.57
2022-09-26T13:00:21.061Z,8.20
2022-09-26T13:03:10.117Z,7.90
2022-09-26T13:06:13.544Z,6.67
2022-09-26T13:08:47.233Z,6.00
2022-09-26T13:11:48.473Z,5.90
2022-09-26T13:14:28.037Z,6.13
2022-09-26T13:17:23.545Z,6.67
2022-09-26T13:19:59.982Z,8.77
2022-09-26T13:22:43.155Z,10.20
2022-09-26T13:25:20.245Z,10.20
2022-09-26T13:27:56.621Z,9.27
2022-09-26T13:30:35.910Z,10.50
2022-09-26T13:33:27.999Z,10.23
2022-09-26T13:36:00.089Z,9.43
2022-09-26T13:38:51.867Z,10.33
2022-09-26T13:41:35.940Z,9.93
2022-09-26T13:44:18.125Z,9.47
2022-09-26T13:47:06.498Z,9.80
2022-09-26T13:49:56.465Z,9.03
2022-09-26T13:52:53.179Z,9.47
2022-09-26T13:55:22.293Z,19.07
2022-09-26T13:58:11.155Z,14.00
2022-09-26T14:00:41.379Z,14.80
2022-09-26T14:03:17.856Z,11.90
2022-09-26T14:05:46.011Z,9.70
2022-09-26T14:08:43.874Z,9.43
2022-09-26T14:11:43.197Z,8.17
2022-09-26T14:14:19.709Z,9.20
2022-09-26T14:17:00.449Z,8.77
2022-09-26T14:19:47.121Z,7.50
2022-09-26T14:22:22.835Z,8.20
2022-09-26T14:24:54.131Z,8.20
2022-09-26T14:27:21.442Z,8.03
2022-09-26T14:29:53.406Z,8.93
2022-09-26T14:32:27.017Z,9.27
2022-09-26T14:34:57.753Z,10.43
2022-09-26T14:37:25.020Z,9.23
2022-09-26T14:40:17.503Z,9.10
2022-09-26T14:42:54.210Z,8.27
2022-09-26T14:45:29.271Z,8.33
2022-09-26T14:48:05.528Z,7.73
2022-09-26T14:50:42.172Z,7.67
2022-09-26T14:53:40.248Z,7.87
2022-09-26T14:56:18.801Z,8.17
2022-09-26T14:58:50.265Z,8.87
2022-09-26T15:01:26.228Z,10.03
2022-09-26T15:04:17.900Z,10.40
2022-09-26T15:07:02.118Z,8.53
2022-09-26T15:09:49.327Z,6.33
2022-09-26T15:12:31.104Z,6.57
2022-09-26T15:15:19.543Z,6.53
2022-09-26T15:17:53.152Z,6.80
2022-09-26T15:20:22.963Z,7.17
2022-09-26T15:22:50.615Z,7.37
2022-09-26T15:25:31.384Z,7.37
2022-09-26T15:27:59.835Z,6.67
2022-09-26T15:30:37.929Z,7.63
2022-09-26T15:33:07.659Z,6.90
2022-09-26T15:35:35.627Z,6.63
2022-09-26T15:38:12.648Z,6.33
2022-09-26T15:40:40.253Z,6.80
2022-09-26T15:43:12.584Z,7.10
2022-09-26T15:45:50.429Z,7.30
2022-09-26T15:48:20.531Z,8.43
2022-09-26T15:51:21.842Z,7.80
2022-09-26T15:54:06.763Z,7.87
2022-09-26T15:56:46.572Z,7.73
2022-09-26T15:59:19.658Z,8.57
2022-09-26T16:01:52.768Z,10.23
2022-09-26T16:04:28.675Z,9.40
2022-09-26T16:07:01.236Z,11.00
2022-09-26T16:09:36.054Z,12.67
2022-09-26T16:12:17.723Z,11.90
2022-09-26T16:14:49.849Z,11.17
2022-09-26T16:17:36.980Z,11.27
2022-09-26T16:20:11.313Z,11.80
2022-09-26T16:22:42.163Z,16.43
2022-09-26T16:25:19.014Z,15.17
2022-09-26T16:28:21.181Z,14.63
2022-09-26T16:30:59.182Z,17.90
2022-09-26T16:33:35.077Z,15.20
2022-09-26T16:36:24.890Z,13.93
2022-09-26T16:39:04.292Z,11.00
2022-09-26T16:42:00.080Z,11.20
2022-09-26T16:44:33.591Z,9.63
2022-09-26T16:47:04.070Z,9.67
2022-09-26T16:49:34.627Z,14.53
2022-09-26T16:52:28.052Z,16.87
2022-09-26T16:54:57.681Z,17.63
2022-09-26T16:57:34.592Z,16.43
2022-09-26T17:00:37.677Z,16.67
2022-09-26T17:03:27.291Z,19.43
2022-09-26T17:05:56.605Z,22.07
2022-09-26T17:08:25.589Z,19.00
2022-09-26T17:11:00.749Z,19.17
2022-09-26T17:13:31.324Z,21.87
2022-09-26T17:16:03.852Z,26.97
2022-09-26T17:18:33.584Z,21.43
2022-09-26T17:21:01.795Z,26.67
2022-09-26T17:23:45.832Z,25.10
2022-09-26T17:26:20.013Z,10.70
2022-09-26T17:28:47.793Z,8.23
2022-09-26T17:31:20.980Z,7.87
2022-09-26T17:33:53.087Z,7.80
2022-09-26T17:36:26.513Z,40.70
2022-09-26T17:38:54.980Z,19.00
2022-09-26T17:41:23.417Z,31.50
2022-09-26T17:43:58.640Z,38.90
2022-09-26T17:46:26.346Z,44.90
2022-09-26T17:48:55.407Z,55.63
2022-09-26T17:51:24.249Z,81.63
2022-09-26T17:53:52.889Z,63.73
2022-09-26T17:56:20.969Z,51.83
2022-09-26T17:58:49.848Z,26.43
2022-09-26T18:01:35.737Z,56.47
2022-09-26T18:04:06.685Z,61.47
2022-09-26T18:06:34.309Z,38.57
2022-09-26T18:09:07.802Z,25.93
2022-09-26T18:11:36.525Z,24.10
2022-09-26T18:14:06.441Z,27.10
2022-09-26T18:16:33.932Z,28.97
2022-09-26T18:19:06.800Z,24.73
2022-09-26T18:21:35.593Z,31.03
2022-09-26T18:24:07.121Z,41.40
2022-09-26T18:26:44.839Z,36.93
2022-09-26T18:29:15.619Z,32.57
2022-09-26T18:31:46.024Z,30.23
2022-09-26T18:34:16.960Z,36.40
2022-09-26T18:36:45.167Z,66.90
2022-09-26T18:39:13.065Z,79.27
2022-09-26T18:41:41.084Z,76.10
2022-09-26T18:44:17.910Z,82.00
2022-09-26T18:46:47.385Z,55.90
2022-09-26T18:49:15.857Z,25.93
2022-09-26T18:51:43.666Z,23.90
2022-09-26T18:54:14.282Z,23.47
2022-09-26T18:57:01.254Z,25.27
2022-09-26T18:59:31.379Z,12.47
2022-09-26T19:02:01.614Z,18.17
2022-09-26T19:04:31.143Z,18.70
2022-09-26T19:07:02.430Z,26.10
2022-09-26T19:09:33.519Z,27.83
2022-09-26T19:12:01.765Z,42.43
2022-09-26T19:14:30.992Z,44.60
2022-09-26T19:16:59.023Z,38.60
2022-09-26T19:19:29.170Z,45.43
2022-09-26T19:22:02.567Z,39.03
2022-09-26T19:24:35.124Z,36.63
2022-09-26T19:27:19.443Z,34.97
2022-09-26T19:30:00.691Z,39.23
2022-09-26T19:32:40.225Z,35.37
2022-09-26T19:35:26.044Z,34.97
2022-09-26T19:37:53.793Z,35.13
2022-09-26T19:40:22.697Z,30.50
2022-09-26T19:42:50.760Z,28.93
2022-09-26T19:45:19.251Z,26.30
2022-09-26T19:47:50.177Z,23.47
2022-09-26T19:50:23.463Z,28.77
2022-09-26T19:52:52.982Z,44.10
2022-09-26T19:55:25.545Z,53.37
2022-09-26T19:58:17.582Z,54.03
2022-09-26T20:00:48.439Z,54.37
2022-09-26T20:03:21.013Z,55.60
2022-09-26T20:05:52.499Z,43.57
2022-09-26T20:08:22.600Z,27.70
2022-09-26T20:10:50.725Z,28.90
2022-09-26T20:13:18.930Z,28.33
2022-09-26T20:15:47.195Z,29.77
2022-09-26T20:18:22.154Z,28.63
2022-09-26T20:20:54.331Z,60.57
2022-09-26T20:23:24.734Z,49.70
2022-09-26T20:25:54.941Z,57.60
2022-09-26T20:28:22.707Z,51.27
2022-09-26T20:30:53.014Z,49.80
2022-09-26T20:33:22.604Z,44.03
2022-09-26T20:36:01.676Z,30.83
2022-09-26T20:38:47.543Z,25.37
2022-09-26T20:41:34.418Z,23.47
2022-09-26T20:44:23.949Z,22.93
2022-09-26T20:46:54.236Z,22.40
2022-09-26T20:49:41.808Z,23.20
2022-09-26T20:52:20.930Z,24.20
2022-09-26T20:54:48.338Z,62.57
2022-09-26T20:57:20.021Z,39.10
2022-09-26T20:59:47.571Z,33.30
2022-09-26T21:02:25.610Z,29.47
2022-09-26T21:04:54.070Z,38.73
2022-09-26T21:07:22.641Z,50.67
2022-09-26T21:09:50.621Z,56.77
2022-09-26T21:12:18.804Z,51.53
2022-09-26T21:14:46.634Z,47.40
2022-09-26T21:17:29.254Z,41.60
2022-09-26T21:19:56.805Z,38.43
2022-09-26T21:22:27.348Z,33.57
2022-09-26T21:24:55.684Z,39.00
2022-09-26T21:27:23.769Z,30.63
2022-09-26T21:29:51.062Z,25.73
2022-09-26T21:32:23.949Z,24.67
2022-09-26T21:35:04.424Z,23.73
2022-09-26T21:37:32.248Z,25.23
2022-09-26T21:39:59.625Z,26.00
2022-09-26T21:42:27.572Z,26.33
2022-09-26T21:45:01.088Z,27.30
2022-09-26T21:47:29.031Z,24.73
2022-09-26T21:49:56.350Z,23.93
2022-09-26T21:52:34.365Z,24.80
2022-09-26T21:55:02.595Z,22.97
2022-09-26T21:57:37.937Z,24.17
2022-09-26T22:00:09.808Z,23.17
2022-09-26T22:02:39.087Z,23.43
2022-09-26T22:05:06.756Z,22.53
2022-09-26T22:07:34.210Z,22.60
2022-09-26T22:10:01.646Z,24.13
2022-09-26T22:12:29.037Z,22.27
2022-09-26T22:14:56.262Z,22.80
2022-09-26T22:17:23.767Z,23.50
2022-09-26T22:19:52.173Z,22.33
2022-09-26T22:22:20.237Z,21.13
2022-09-26T22:24:48.197Z,21.87
2022-09-26T22:27:15.614Z,23.00
2022-09-26T22:29:43.483Z,21.07
2022-09-26T22:32:11.162Z,23.13
2022-09-26T22:34:38.492Z,24.70
2022-09-26T22:37:05.924Z,25.40
2022-09-26T22:39:33.315Z,25.80
2022-09-26T22:42:00.946Z,25.43
2022-09-26T22:44:28.252Z,25.43
2022-09-26T22:46:55.499Z,24.90
2022-09-26T22:49:23.295Z,24.67
2022-09-26T22:51:50.673Z,34.57
2022-09-26T22:54:18.238Z,31.30
2022-09-26T22:56:45.551Z,24.13
2022-09-26T22:59:12.906Z,29.13
2022-09-26T23:01:40.518Z,27.20
2022-09-26T23:04:08.064Z,23.03
2022-09-26T23:06:35.381Z,24.27
2022-09-26T23:09:02.982Z,21.70
2022-09-26T23:11:32.168Z,22.57
2022-09-26T23:13:59.657Z,21.47
2022-09-26T23:16:29.682Z,20.23
2022-09-26T23:18:58.737Z,20.10
2022-09-26T23:21:27.818Z,19.60
2022-09-26T23:23:57.718Z,22.77
2022-09-26T23:26:32.017Z,20.40
2022-09-26T23:29:00.080Z,21.50
2022-09-26T23:31:29.008Z,25.93
2022-09-26T23:33:57.682Z,29.60
2022-09-26T23:36:25.712Z,31.10
2022-09-26T23:38:53.959Z,29.03
2022-09-26T23:41:21.216Z,27.50
2022-09-26T23:43:48.603Z,34.73
2022-09-26T23:46:16.726Z,35.60
2022-09-26T23:48:45.146Z,36.97
2022-09-26T23:51:12.624Z,33.47
2022-09-26T23:53:39.920Z,23.00
2022-09-26T23:56:09.863Z,22.23
2022-09-26T23:58:37.629Z,23.80
